createdAt,value
2018-11-04T00:01:24.868Z,36.93
2018-11-04T00:02:59.795Z,35.27
2018-11-04T00:04:34.699Z,40.83
2018-11-04T00:06:09.651Z,38.33
2018-11-04T00:07:45.258Z,36.83
2018-11-04T00:09:20.221Z,36.50
2018-11-04T00:10:55.112Z,36.23
2018-11-04T00:12:30.036Z,37.97
2018-11-04T00:14:06.223Z,33.60
2018-11-04T00:15:41.134Z,36.43
2018-11-04T00:17:16.055Z,36.97
2018-11-04T00:18:51.135Z,34.30
2018-11-04T00:20:26.212Z,37.70
2018-11-04T00:22:01.220Z,38.07
2018-11-04T00:23:36.130Z,36.10
2018-11-04T00:25:12.666Z,37.03
2018-11-04T00:26:47.602Z,35.00
2018-11-04T00:28:22.504Z,38.97
2018-11-04T00:29:57.638Z,34.93
2018-11-04T00:31:32.733Z,31.00
2018-11-04T00:33:07.737Z,36.93
2018-11-04T00:34:42.770Z,36.77
2018-11-04T00:36:18.234Z,38.33
2018-11-04T00:37:53.172Z,31.80
2018-11-04T00:39:28.092Z,37.90
2018-11-04T00:41:02.959Z,35.40
2018-11-04T00:42:38.091Z,35.73
2018-11-04T00:44:12.987Z,27.53
2018-11-04T00:45:47.907Z,38.13
2018-11-04T00:47:22.819Z,33.00
2018-11-04T00:48:57.929Z,32.03
2018-11-04T00:50:32.833Z,32.77
2018-11-04T00:52:07.776Z,31.07
2018-11-04T00:53:42.700Z,32.97
2018-11-04T00:55:17.591Z,31.33
2018-11-04T00:56:52.604Z,31.20
2018-11-04T00:58:27.498Z,27.37
2018-11-04T01:00:02.391Z,31.10
2018-11-04T01:01:37.341Z,28.97
2018-11-04T01:03:12.231Z,32.67
2018-11-04T01:04:47.122Z,32.83
2018-11-04T01:06:22.012Z,29.73
2018-11-04T01:07:56.978Z,28.37
2018-11-04T01:09:32.154Z,30.53
2018-11-04T01:11:07.058Z,34.30
2018-11-04T01:12:42.745Z,31.60
2018-11-04T01:14:17.765Z,31.47
2018-11-04T01:15:52.649Z,29.77
2018-11-04T01:17:27.563Z,30.80
2018-11-04T01:19:02.635Z,31.77
2018-11-04T01:20:37.508Z,30.80
2018-11-04T01:22:12.408Z,31.80
2018-11-04T01:23:47.336Z,29.70
2018-11-04T01:25:22.318Z,33.93
2018-11-04T01:26:57.237Z,33.77
2018-11-04T01:28:32.154Z,34.13
2018-11-04T01:30:09.089Z,30.27
2018-11-04T01:31:43.968Z,31.07
2018-11-04T01:33:18.874Z,31.70
2018-11-04T01:34:55.976Z,32.83
2018-11-04T01:36:31.887Z,32.43
2018-11-04T01:38:09.267Z,31.07
2018-11-04T01:39:45.260Z,32.83
2018-11-04T01:41:20.390Z,32.70
2018-11-04T01:42:55.382Z,32.50
2018-11-04T01:44:30.291Z,34.33
2018-11-04T01:46:05.274Z,31.03
2018-11-04T01:47:40.448Z,33.30
2018-11-04T01:49:15.397Z,34.93
2018-11-04T01:50:50.321Z,31.90
2018-11-04T01:52:25.690Z,34.77
2018-11-04T01:54:00.684Z,34.23
2018-11-04T01:55:35.576Z,30.23
2018-11-04T01:57:10.470Z,35.03
2018-11-04T01:58:45.415Z,32.20
2018-11-04T02:00:20.339Z,33.40
2018-11-04T02:01:56.189Z,39.80
2018-11-04T02:03:31.115Z,31.60
2018-11-04T02:05:06.609Z,32.73
2018-11-04T02:06:41.524Z,34.07
2018-11-04T02:08:16.422Z,32.23
2018-11-04T02:09:51.328Z,38.70
2018-11-04T02:11:26.262Z,35.20
2018-11-04T02:13:01.167Z,34.03
2018-11-04T02:14:36.076Z,32.93
2018-11-04T02:16:11.038Z,32.67
2018-11-04T02:17:45.925Z,33.40
2018-11-04T02:19:20.896Z,30.80
2018-11-04T02:20:55.802Z,30.13
2018-11-04T02:22:30.714Z,34.37
2018-11-04T02:24:05.919Z,36.20
2018-11-04T02:25:40.881Z,32.77
2018-11-04T02:27:15.764Z,32.53
2018-11-04T02:28:50.783Z,35.23
2018-11-04T02:30:25.688Z,31.13
2018-11-04T02:32:00.617Z,33.97
2018-11-04T02:33:35.725Z,32.40
2018-11-04T02:35:10.694Z,33.17
2018-11-04T02:36:45.545Z,35.27
2018-11-04T02:38:20.430Z,32.27
2018-11-04T02:39:55.389Z,33.47
2018-11-04T02:41:30.435Z,40.13
2018-11-04T02:43:05.391Z,41.57
2018-11-04T02:44:40.305Z,33.70
2018-11-04T02:46:15.196Z,34.60
2018-11-04T02:47:50.068Z,33.10
2018-11-04T02:49:25.048Z,32.27
2018-11-04T02:50:59.938Z,32.33
2018-11-04T02:52:34.966Z,35.87
2018-11-04T02:54:09.859Z,33.60
2018-11-04T02:55:44.928Z,32.30
2018-11-04T02:57:19.901Z,31.83
2018-11-04T02:58:55.106Z,31.10
2018-11-04T03:00:29.981Z,33.40
2018-11-04T03:02:05.723Z,36.00
2018-11-04T03:03:40.771Z,33.23
2018-11-04T03:05:15.788Z,34.33
2018-11-04T03:06:50.692Z,32.53
2018-11-04T03:08:25.599Z,31.30
2018-11-04T03:10:00.509Z,34.27
2018-11-04T03:11:35.599Z,35.70
2018-11-04T03:13:10.640Z,32.40
2018-11-04T03:14:45.550Z,33.97
2018-11-04T03:16:20.444Z,31.17
2018-11-04T03:17:55.582Z,34.23
2018-11-04T03:19:32.225Z,32.03
2018-11-04T03:21:07.673Z,33.00
2018-11-04T03:22:42.605Z,34.27
2018-11-04T03:24:19.968Z,34.53
2018-11-04T03:25:54.895Z,30.03
2018-11-04T03:27:29.872Z,29.30
2018-11-04T03:29:04.822Z,34.00
2018-11-04T03:30:39.931Z,34.40
2018-11-04T03:32:14.936Z,33.83
2018-11-04T03:33:49.836Z,31.60
2018-11-04T03:35:24.852Z,32.37
2018-11-04T03:36:59.713Z,32.00
2018-11-04T03:38:34.718Z,32.87
2018-11-04T03:40:10.645Z,32.20
2018-11-04T03:41:45.587Z,31.87
2018-11-04T03:43:20.471Z,31.50
2018-11-04T03:44:55.397Z,33.67
2018-11-04T03:46:30.345Z,34.07
2018-11-04T03:48:05.507Z,37.43
2018-11-04T03:49:40.485Z,33.83
2018-11-04T03:51:15.418Z,31.90
2018-11-04T03:52:50.346Z,32.43
2018-11-04T03:54:25.278Z,30.13
2018-11-04T03:56:00.175Z,30.10
2018-11-04T03:57:35.926Z,30.83
2018-11-04T03:59:11.023Z,30.23
2018-11-04T04:00:46.528Z,37.53
2018-11-04T04:02:21.494Z,35.80
2018-11-04T04:03:56.407Z,33.27
2018-11-04T04:05:31.365Z,36.70
2018-11-04T04:07:06.275Z,34.37
2018-11-04T04:08:41.297Z,36.33
2018-11-04T04:10:16.279Z,33.47
2018-11-04T04:11:51.227Z,34.53
2018-11-04T04:13:26.150Z,35.57
2018-11-04T04:15:08.647Z,35.40
2018-11-04T04:16:43.565Z,34.80
2018-11-04T04:18:18.516Z,31.97
2018-11-04T04:19:53.412Z,33.30
2018-11-04T04:21:28.427Z,32.17
2018-11-04T04:23:03.312Z,31.87
2018-11-04T04:24:38.265Z,36.93
2018-11-04T04:26:13.162Z,32.67
2018-11-04T04:27:48.090Z,29.77
2018-11-04T04:29:22.983Z,30.13
2018-11-04T04:30:57.901Z,34.53
2018-11-04T04:32:32.805Z,31.63
2018-11-04T04:34:07.709Z,33.47
2018-11-04T04:35:42.642Z,32.40
2018-11-04T04:37:17.575Z,34.87
2018-11-04T04:38:52.471Z,31.80
2018-11-04T04:40:27.447Z,31.50
2018-11-04T04:42:02.388Z,29.40
2018-11-04T04:43:37.478Z,32.63
2018-11-04T04:45:12.401Z,29.23
2018-11-04T04:46:47.403Z,35.13
2018-11-04T04:48:22.329Z,31.50
2018-11-04T04:49:57.288Z,30.57
2018-11-04T04:51:32.222Z,28.77
2018-11-04T04:53:07.403Z,31.17
2018-11-04T04:54:42.383Z,31.77
2018-11-04T04:56:17.356Z,30.10
2018-11-04T04:57:52.294Z,31.37
2018-11-04T04:59:27.463Z,33.50
2018-11-04T05:01:02.407Z,39.30
2018-11-04T05:02:37.366Z,32.20
2018-11-04T05:04:12.317Z,37.57
2018-11-04T05:05:47.270Z,31.43
2018-11-04T05:07:22.261Z,31.17
2018-11-04T05:08:57.202Z,30.80
2018-11-04T05:10:32.179Z,37.33
2018-11-04T05:12:07.226Z,34.27
2018-11-04T05:13:42.247Z,31.47
2018-11-04T05:15:17.221Z,36.43
2018-11-04T05:16:52.460Z,35.33
2018-11-04T05:18:27.409Z,35.27
2018-11-04T05:20:02.363Z,34.00
2018-11-04T05:21:37.381Z,32.67
2018-11-04T05:23:12.411Z,35.43
2018-11-04T05:24:47.328Z,34.87
2018-11-04T05:26:22.318Z,31.87
2018-11-04T05:27:57.247Z,29.40
2018-11-04T05:29:32.135Z,32.20
2018-11-04T05:31:07.090Z,33.20
2018-11-04T05:32:42.118Z,36.50
2018-11-04T05:34:17.226Z,33.10
2018-11-04T05:35:52.276Z,33.50
2018-11-04T05:37:27.315Z,31.13
2018-11-04T05:39:02.220Z,35.33
2018-11-04T05:40:37.146Z,36.20
2018-11-04T05:42:12.123Z,34.00
2018-11-04T05:43:47.023Z,34.90
2018-11-04T05:45:21.969Z,35.87
2018-11-04T05:46:56.889Z,35.33
2018-11-04T05:48:31.890Z,33.83
2018-11-04T05:50:06.907Z,35.27
2018-11-04T05:51:41.850Z,30.70
2018-11-04T05:53:16.843Z,29.83
2018-11-04T05:54:51.781Z,34.00
2018-11-04T05:56:26.772Z,36.10
2018-11-04T05:58:01.754Z,34.47
2018-11-04T05:59:36.677Z,37.07
2018-11-04T06:01:11.672Z,33.80
2018-11-04T06:02:46.624Z,35.07
2018-11-04T06:04:21.512Z,30.57
2018-11-04T06:05:56.620Z,35.23
2018-11-04T06:07:31.566Z,34.30
2018-11-04T06:09:08.132Z,36.17
2018-11-04T06:10:43.073Z,32.43
2018-11-04T06:12:17.982Z,35.83
2018-11-04T06:13:53.110Z,30.13
2018-11-04T06:15:28.055Z,34.90
2018-11-04T06:17:03.232Z,33.33
2018-11-04T06:18:38.287Z,33.00
2018-11-04T06:20:13.658Z,32.17
2018-11-04T06:21:48.834Z,35.70
2018-11-04T06:23:23.750Z,35.73
2018-11-04T06:24:58.716Z,33.00
2018-11-04T06:26:33.644Z,33.20
2018-11-04T06:28:08.574Z,40.50
2018-11-04T06:29:43.529Z,33.77
2018-11-04T06:31:18.541Z,38.87
2018-11-04T06:32:53.481Z,31.77
2018-11-04T06:34:28.436Z,31.27
2018-11-04T06:36:03.433Z,34.83
2018-11-04T06:37:38.450Z,33.77
2018-11-04T06:39:13.526Z,34.90
2018-11-04T06:40:48.434Z,36.50
2018-11-04T06:42:23.457Z,31.87
2018-11-04T06:43:58.435Z,35.03
2018-11-04T06:45:33.414Z,35.53
2018-11-04T06:47:08.481Z,36.13
2018-11-04T06:48:43.356Z,31.67
2018-11-04T06:50:18.270Z,30.50
2018-11-04T06:51:53.351Z,32.97
2018-11-04T06:53:28.308Z,33.70
2018-11-04T06:55:03.377Z,35.43
2018-11-04T06:56:38.314Z,34.00
2018-11-04T06:58:13.273Z,34.33
2018-11-04T06:59:48.454Z,35.07
2018-11-04T07:01:23.415Z,37.20
2018-11-04T07:02:58.348Z,35.10
2018-11-04T07:04:33.289Z,33.10
2018-11-04T07:06:08.253Z,36.20
2018-11-04T07:07:43.214Z,34.57
2018-11-04T07:09:18.292Z,30.90
2018-11-04T07:10:53.283Z,32.20
2018-11-04T07:12:28.449Z,38.57
2018-11-04T07:14:03.630Z,33.13
2018-11-04T07:15:38.514Z,35.17
2018-11-04T07:17:13.558Z,36.47
2018-11-04T07:18:49.438Z,32.50
2018-11-04T07:20:24.755Z,32.97
2018-11-04T07:21:59.768Z,33.00
2018-11-04T07:23:34.723Z,34.17
2018-11-04T07:25:09.657Z,33.23
2018-11-04T07:26:44.605Z,32.40
2018-11-04T07:28:19.512Z,33.27
2018-11-04T07:29:54.432Z,30.47
2018-11-04T07:31:29.462Z,33.40
2018-11-04T07:33:04.434Z,33.07
2018-11-04T07:34:39.331Z,33.03
2018-11-04T07:36:14.253Z,36.50
2018-11-04T07:37:49.215Z,32.67
2018-11-04T07:39:24.225Z,32.47
2018-11-04T07:40:59.357Z,31.40
2018-11-04T07:42:34.332Z,31.50
2018-11-04T07:44:09.518Z,31.67
2018-11-04T07:45:44.470Z,35.53
2018-11-04T07:47:19.414Z,34.30
2018-11-04T07:48:54.302Z,32.20
2018-11-04T07:50:29.261Z,30.80
2018-11-04T07:52:04.081Z,32.13
2018-11-04T07:53:39.005Z,34.10
2018-11-04T07:55:13.878Z,36.03
2018-11-04T07:56:48.817Z,32.53
2018-11-04T07:58:23.702Z,32.87
2018-11-04T07:59:58.606Z,31.50
2018-11-04T08:01:33.494Z,31.07
2018-11-04T08:03:08.565Z,31.43
2018-11-04T08:04:43.443Z,31.07
2018-11-04T08:06:18.345Z,31.63
2018-11-04T08:07:53.341Z,31.00
2018-11-04T08:09:28.239Z,30.33
2018-11-04T08:11:03.558Z,33.27
2018-11-04T08:12:38.775Z,30.83
2018-11-04T08:14:13.687Z,30.23
2018-11-04T08:15:48.745Z,31.60
2018-11-04T08:17:25.757Z,29.80
2018-11-04T08:19:02.160Z,28.40
2018-11-04T08:22:18.271Z,28.77
2018-11-04T08:23:53.154Z,31.80
2018-11-04T08:25:28.337Z,32.57
2018-11-04T08:27:03.447Z,30.07
2018-11-04T08:28:38.399Z,32.80
2018-11-04T08:30:13.325Z,31.63
2018-11-04T08:31:48.261Z,33.73
2018-11-04T08:33:23.205Z,36.20
2018-11-04T08:34:58.273Z,31.27
2018-11-04T08:36:33.162Z,31.60
2018-11-04T08:38:08.178Z,28.97
2018-11-04T08:39:43.075Z,31.60
2018-11-04T08:41:18.062Z,33.30
2018-11-04T08:42:52.966Z,31.93
2018-11-04T08:44:27.854Z,32.70
2018-11-04T08:46:02.755Z,32.07
2018-11-04T08:47:44.470Z,35.33
2018-11-04T08:49:19.396Z,29.60
2018-11-04T08:50:54.308Z,35.20
2018-11-04T08:52:29.334Z,33.83
2018-11-04T08:54:04.211Z,32.23
2018-11-04T08:55:39.144Z,32.67
2018-11-04T08:57:14.214Z,29.63
2018-11-04T08:58:49.159Z,28.03
2018-11-04T09:00:24.034Z,27.50
2018-11-04T09:01:59.170Z,27.37
2018-11-04T09:03:34.116Z,29.27
2018-11-04T09:05:09.330Z,28.47
2018-11-04T09:06:44.242Z,27.83
2018-11-04T09:08:19.284Z,27.20
2018-11-04T09:09:54.215Z,28.23
2018-11-04T09:11:29.143Z,29.47
2018-11-04T09:13:04.082Z,27.67
2018-11-04T09:14:39.006Z,27.57
2018-11-04T09:16:13.886Z,24.40
2018-11-04T09:17:48.825Z,28.77
2018-11-04T09:19:23.785Z,27.90
2018-11-04T09:20:58.674Z,25.93
2018-11-04T09:22:33.630Z,24.57
2018-11-04T09:24:08.543Z,29.77
2018-11-04T09:25:43.443Z,28.90
2018-11-04T09:27:18.803Z,28.47
2018-11-04T09:28:53.898Z,29.83
2018-11-04T09:30:28.718Z,27.43
2018-11-04T09:32:03.855Z,30.97
2018-11-04T09:33:38.862Z,27.47
2018-11-04T09:35:14.120Z,28.37
2018-11-04T09:36:48.902Z,26.33
2018-11-04T09:38:23.895Z,28.33
2018-11-04T09:39:58.836Z,28.03
2018-11-04T09:41:33.793Z,25.83
2018-11-04T09:43:08.722Z,25.70
2018-11-04T09:44:43.696Z,25.87
2018-11-04T09:46:18.608Z,29.50
2018-11-04T09:47:53.474Z,25.60
2018-11-04T09:49:28.489Z,30.10
2018-11-04T09:51:03.410Z,28.07
2018-11-04T09:52:38.549Z,28.57
2018-11-04T09:54:13.786Z,29.07
2018-11-04T09:55:48.670Z,27.70
2018-11-04T09:57:23.712Z,30.27
2018-11-04T09:58:58.656Z,27.50
2018-11-04T10:00:33.527Z,29.40
2018-11-04T10:02:08.445Z,29.33
2018-11-04T10:03:50.118Z,26.90
2018-11-04T10:05:24.994Z,31.27
2018-11-04T10:06:59.962Z,28.73
2018-11-04T10:08:34.804Z,27.40
2018-11-04T10:10:11.565Z,26.80
2018-11-04T10:11:46.523Z,30.40
2018-11-04T10:13:21.498Z,28.37
2018-11-04T10:14:56.528Z,26.67
2018-11-04T10:16:31.486Z,25.43
2018-11-04T10:18:06.430Z,25.67
2018-11-04T10:19:41.408Z,31.90
2018-11-04T10:21:16.238Z,29.13
2018-11-04T10:22:51.339Z,30.93
2018-11-04T10:24:33.045Z,29.37
2018-11-04T10:26:07.977Z,28.17
2018-11-04T10:27:43.346Z,30.00
2018-11-04T10:29:18.255Z,30.27
2018-11-04T10:30:53.364Z,28.43
2018-11-04T10:32:28.300Z,31.97
2018-11-04T10:34:03.220Z,26.47
2018-11-04T10:35:38.124Z,26.87
2018-11-04T10:37:13.256Z,29.73
2018-11-04T10:38:48.030Z,31.93
2018-11-04T10:40:23.005Z,32.17
2018-11-04T10:41:57.879Z,34.97
2018-11-04T10:43:32.773Z,29.50
2018-11-04T10:45:08.675Z,33.50
2018-11-04T10:46:43.548Z,30.03
2018-11-04T10:48:18.444Z,27.60
2018-11-04T10:49:53.428Z,28.90
2018-11-04T10:51:28.340Z,29.47
2018-11-04T10:53:03.267Z,32.90
2018-11-04T10:54:38.208Z,33.90
2018-11-04T10:56:13.211Z,32.53
2018-11-04T10:57:48.195Z,30.67
2018-11-04T10:59:23.249Z,31.87
2018-11-04T11:01:03.610Z,32.63
2018-11-04T11:02:38.462Z,30.60
2018-11-04T11:04:13.711Z,29.00
2018-11-04T11:05:48.609Z,32.30
2018-11-04T11:07:23.495Z,31.10
2018-11-04T11:08:58.591Z,34.87
2018-11-04T11:10:33.535Z,27.90
2018-11-04T11:12:08.422Z,30.37
2018-11-04T11:13:43.312Z,31.17
2018-11-04T11:15:18.321Z,30.63
2018-11-04T11:16:53.191Z,32.47
2018-11-04T11:18:28.287Z,27.20
2018-11-04T11:20:03.245Z,28.40
2018-11-04T11:21:38.134Z,26.70
2018-11-04T11:23:13.131Z,31.70
2018-11-04T11:24:48.040Z,26.73
2018-11-04T11:26:22.934Z,29.10
2018-11-04T11:27:57.870Z,28.57
2018-11-04T11:29:32.850Z,26.63
2018-11-04T11:31:08.717Z,26.80
2018-11-04T11:32:43.608Z,29.17
2018-11-04T11:34:18.512Z,28.87
2018-11-04T11:35:53.470Z,32.87
2018-11-04T11:37:28.748Z,30.37
2018-11-04T11:39:03.800Z,28.57
2018-11-04T11:40:38.753Z,26.67
2018-11-04T11:42:13.721Z,27.73
2018-11-04T11:43:48.633Z,26.63
2018-11-04T11:45:23.810Z,25.23
2018-11-04T11:46:58.733Z,24.57
2018-11-04T11:48:33.809Z,28.30
2018-11-04T11:50:09.050Z,28.07
2018-11-04T11:51:43.965Z,26.70
2018-11-04T11:53:19.017Z,27.53
2018-11-04T11:54:54.005Z,28.47
2018-11-04T11:56:28.919Z,29.00
2018-11-04T11:58:03.777Z,27.73
2018-11-04T11:59:38.682Z,28.13
2018-11-04T12:01:13.699Z,26.60
2018-11-04T12:02:48.591Z,23.83
2018-11-04T12:04:23.527Z,27.07
2018-11-04T12:05:58.444Z,25.70
2018-11-04T12:07:33.570Z,27.17
2018-11-04T12:09:09.054Z,29.93
2018-11-04T12:10:44.011Z,25.53
2018-11-04T12:12:18.895Z,24.77
2018-11-04T12:13:53.829Z,27.90
2018-11-04T12:15:28.762Z,27.33
2018-11-04T12:17:03.695Z,26.23
2018-11-04T12:18:38.567Z,24.93
2018-11-04T12:20:14.143Z,26.37
2018-11-04T12:21:49.176Z,26.63
2018-11-04T12:23:24.131Z,26.57
2018-11-04T12:24:59.044Z,27.43
2018-11-04T12:26:33.922Z,25.83
2018-11-04T12:28:08.850Z,21.93
2018-11-04T12:29:43.754Z,28.47
2018-11-04T12:31:18.679Z,26.33
2018-11-04T12:32:53.563Z,21.00
2018-11-04T12:34:28.481Z,26.20
2018-11-04T12:36:03.360Z,21.23
2018-11-04T12:37:38.250Z,28.40
2018-11-04T12:39:13.424Z,22.00
2018-11-04T12:40:48.314Z,24.53
2018-11-04T12:42:23.565Z,27.43
2018-11-04T12:43:58.447Z,23.27
2018-11-04T12:45:33.448Z,23.83
2018-11-04T12:47:08.387Z,26.77
2018-11-04T12:48:43.303Z,24.03
2018-11-04T12:50:18.239Z,24.17
2018-11-04T12:51:53.181Z,22.93
2018-11-04T12:53:28.192Z,26.80
2018-11-04T12:55:03.114Z,25.40
2018-11-04T12:56:38.073Z,22.73
2018-11-04T12:58:12.983Z,21.07
2018-11-04T12:59:48.099Z,22.43
2018-11-04T13:01:23.229Z,22.90
2018-11-04T13:02:58.203Z,22.77
2018-11-04T13:04:33.114Z,23.23
2018-11-04T13:06:08.037Z,23.50
2018-11-04T13:07:42.938Z,23.77
2018-11-04T13:09:17.873Z,22.77
2018-11-04T13:10:52.794Z,23.67
2018-11-04T13:12:27.912Z,25.03
2018-11-04T13:14:02.836Z,24.67
2018-11-04T13:15:37.779Z,22.43
2018-11-04T13:17:12.695Z,20.30
2018-11-04T13:18:47.620Z,21.43
2018-11-04T13:20:22.532Z,22.73
2018-11-04T13:21:57.442Z,21.97
2018-11-04T13:23:32.353Z,21.37
2018-11-04T13:25:07.515Z,22.30
2018-11-04T13:26:42.442Z,22.27
2018-11-04T13:28:17.383Z,19.93
2018-11-04T13:29:52.697Z,20.33
2018-11-04T13:31:27.639Z,21.40
2018-11-04T13:33:02.991Z,20.27
2018-11-04T13:34:37.906Z,20.93
2018-11-04T13:36:12.869Z,23.43
2018-11-04T13:37:47.771Z,22.90
2018-11-04T13:39:22.774Z,22.40
2018-11-04T13:41:01.208Z,25.70
2018-11-04T13:42:36.290Z,23.43
2018-11-04T13:44:11.242Z,23.53
2018-11-04T13:45:46.126Z,22.70
2018-11-04T13:47:21.125Z,26.03
2018-11-04T13:48:56.031Z,21.17
2018-11-04T13:50:31.006Z,24.27
2018-11-04T13:52:05.957Z,23.93
2018-11-04T13:53:40.876Z,25.57
2018-11-04T13:55:15.886Z,20.77
2018-11-04T13:56:50.792Z,25.93
2018-11-04T13:58:25.997Z,24.90
2018-11-04T14:00:00.983Z,24.50
2018-11-04T14:01:35.896Z,24.63
2018-11-04T14:03:10.784Z,20.70
2018-11-04T14:04:45.859Z,24.23
2018-11-04T14:06:20.868Z,24.87
2018-11-04T14:07:55.810Z,24.67
2018-11-04T14:09:30.755Z,26.37
2018-11-04T14:11:06.023Z,21.73
2018-11-04T14:12:41.475Z,24.17
2018-11-04T14:14:16.395Z,20.93
2018-11-04T14:15:51.286Z,20.53
2018-11-04T14:17:26.237Z,23.20
2018-11-04T14:19:01.160Z,22.33
2018-11-04T14:20:36.116Z,19.60
2018-11-04T14:22:11.029Z,27.33
2018-11-04T14:23:46.126Z,23.97
2018-11-04T14:25:21.018Z,18.87
2018-11-04T14:26:56.147Z,22.13
2018-11-04T14:28:31.256Z,20.90
2018-11-04T14:30:08.632Z,25.37
2018-11-04T14:31:43.582Z,19.43
2018-11-04T14:33:18.492Z,23.67
2018-11-04T14:34:53.378Z,21.50
2018-11-04T14:36:28.283Z,24.27
2018-11-04T14:38:03.370Z,21.83
2018-11-04T14:39:38.288Z,26.53
2018-11-04T14:41:13.159Z,22.60
2018-11-04T14:42:54.733Z,19.67
2018-11-04T14:44:29.620Z,21.40
2018-11-04T14:46:04.584Z,24.30
2018-11-04T14:47:40.051Z,20.30
2018-11-04T14:49:14.942Z,20.70
2018-11-04T14:50:49.840Z,21.90
2018-11-04T14:52:24.766Z,22.73
2018-11-04T14:53:59.898Z,22.83
2018-11-04T14:55:34.860Z,30.77
2018-11-04T14:57:09.872Z,26.23
2018-11-04T14:58:44.907Z,25.40
2018-11-04T15:00:19.834Z,23.40
2018-11-04T15:01:54.799Z,21.27
2018-11-04T15:03:29.637Z,22.80
2018-11-04T15:05:05.016Z,23.33
2018-11-04T15:06:39.916Z,20.67
2018-11-04T15:08:14.842Z,21.77
2018-11-04T15:09:49.746Z,20.83
2018-11-04T15:11:24.744Z,22.63
2018-11-04T15:12:59.735Z,22.70
2018-11-04T15:14:34.657Z,24.03
2018-11-04T15:16:09.599Z,20.83
2018-11-04T15:17:44.527Z,22.13
2018-11-04T15:19:19.458Z,24.60
2018-11-04T15:20:54.338Z,20.53
2018-11-04T15:22:29.280Z,23.60
2018-11-04T15:24:04.179Z,25.40
2018-11-04T15:25:39.275Z,22.87
2018-11-04T15:27:14.167Z,26.43
2018-11-04T15:28:49.119Z,21.13
2018-11-04T15:30:24.009Z,22.50
2018-11-04T15:31:58.919Z,23.50
2018-11-04T15:33:33.822Z,25.80
2018-11-04T15:35:08.811Z,22.83
2018-11-04T15:36:43.872Z,25.17
2018-11-04T15:38:18.856Z,21.77
2018-11-04T15:39:54.043Z,21.90
2018-11-04T15:41:28.924Z,23.20
2018-11-04T15:43:03.965Z,25.17
2018-11-04T15:44:38.911Z,23.67
2018-11-04T15:46:14.006Z,22.30
2018-11-04T15:47:49.032Z,21.50
2018-11-04T15:49:23.984Z,22.30
2018-11-04T15:50:59.086Z,21.70
2018-11-04T15:52:33.999Z,21.80
2018-11-04T15:54:08.938Z,22.90
2018-11-04T15:55:43.823Z,21.03
2018-11-04T15:57:18.817Z,23.60
2018-11-04T15:58:54.704Z,23.47
2018-11-04T16:00:29.660Z,22.43
2018-11-04T16:02:05.003Z,25.30
2018-11-04T16:03:40.147Z,20.03
2018-11-04T16:05:15.064Z,22.40
2018-11-04T16:06:49.961Z,24.27
2018-11-04T16:08:24.883Z,23.97
2018-11-04T16:09:59.912Z,24.70
2018-11-04T16:11:34.825Z,19.63
2018-11-04T16:13:09.788Z,21.43
2018-11-04T16:14:44.755Z,20.77
2018-11-04T16:16:19.599Z,19.27
2018-11-04T16:17:54.564Z,20.70
2018-11-04T16:19:29.508Z,24.57
2018-11-04T16:21:04.507Z,20.57
2018-11-04T16:22:40.011Z,19.17
2018-11-04T16:24:14.974Z,20.37
2018-11-04T16:25:49.892Z,20.67
2018-11-04T16:27:25.288Z,21.43
2018-11-04T16:29:00.312Z,23.43
2018-11-04T16:30:35.247Z,21.67
2018-11-04T16:32:10.255Z,23.57
2018-11-04T16:33:45.239Z,21.50
2018-11-04T16:35:20.175Z,25.77
2018-11-04T16:36:55.084Z,20.00
2018-11-04T16:38:30.012Z,22.47
2018-11-04T16:40:04.959Z,23.17
2018-11-04T16:41:39.853Z,23.07
2018-11-04T16:43:14.770Z,23.50
2018-11-04T16:44:49.715Z,22.73
2018-11-04T16:46:24.605Z,24.03
2018-11-04T16:47:59.543Z,22.83
2018-11-04T16:49:34.495Z,20.30
2018-11-04T16:51:09.416Z,22.13
2018-11-04T16:52:44.929Z,21.60
2018-11-04T16:54:19.898Z,20.07
2018-11-04T16:55:54.904Z,21.73
2018-11-04T16:57:29.790Z,19.47
2018-11-04T16:59:05.223Z,22.93
2018-11-04T17:00:40.219Z,21.27
2018-11-04T17:02:15.184Z,20.60
2018-11-04T17:03:50.312Z,23.03
2018-11-04T17:05:25.389Z,20.20
2018-11-04T17:07:00.220Z,20.17
2018-11-04T17:08:35.139Z,20.10
2018-11-04T17:10:10.527Z,19.97
2018-11-04T17:11:45.477Z,20.83
2018-11-04T17:13:20.491Z,20.93
2018-11-04T17:14:55.503Z,17.73
2018-11-04T17:16:30.424Z,20.57
2018-11-04T17:18:05.597Z,19.67
2018-11-04T17:19:40.507Z,16.87
2018-11-04T17:21:15.459Z,17.03
2018-11-04T17:22:51.160Z,18.07
2018-11-04T17:24:26.076Z,19.37
2018-11-04T17:26:01.044Z,16.37
2018-11-04T17:27:35.997Z,19.70
2018-11-04T17:29:11.824Z,15.97
2018-11-04T17:30:46.761Z,17.67
2018-11-04T17:32:21.623Z,16.97
2018-11-04T17:33:56.619Z,16.90
2018-11-04T17:35:31.634Z,16.70
2018-11-04T17:37:07.499Z,17.80
2018-11-04T17:38:46.940Z,18.27
2018-11-04T17:40:22.242Z,17.30
2018-11-04T17:41:57.255Z,18.67
2018-11-04T17:43:32.268Z,20.23
2018-11-04T17:45:09.053Z,18.47
2018-11-04T17:46:44.204Z,21.90
2018-11-04T17:48:19.119Z,21.10
2018-11-04T17:49:54.151Z,18.33
2018-11-04T17:51:29.008Z,19.60
2018-11-04T17:53:03.904Z,16.50
2018-11-04T17:54:39.069Z,17.27
2018-11-04T17:56:14.040Z,21.47
2018-11-04T17:57:49.128Z,23.07
2018-11-04T17:59:24.226Z,21.03
2018-11-04T18:00:59.107Z,18.40
2018-11-04T18:02:34.192Z,17.10
2018-11-04T18:04:09.157Z,18.73
2018-11-04T18:05:44.160Z,19.20
2018-11-04T18:07:19.123Z,22.07
2018-11-04T18:08:54.138Z,21.43
2018-11-04T18:10:29.123Z,20.80
2018-11-04T18:12:04.271Z,20.87
2018-11-04T18:13:39.172Z,20.00
2018-11-04T18:15:14.880Z,17.40
2018-11-04T18:16:49.820Z,21.43
2018-11-04T18:18:24.727Z,21.33
2018-11-04T18:19:59.701Z,18.40
2018-11-04T18:21:34.892Z,17.40
2018-11-04T18:23:09.857Z,17.23
2018-11-04T18:24:45.651Z,17.63
2018-11-04T18:26:20.688Z,19.00
2018-11-04T18:27:55.635Z,15.00
2018-11-04T18:29:30.622Z,17.67
2018-11-04T18:31:05.764Z,16.07
2018-11-04T18:32:40.802Z,18.67
2018-11-04T18:34:16.499Z,14.43
2018-11-04T18:35:51.516Z,19.07
2018-11-04T18:37:26.363Z,14.83
2018-11-04T18:39:01.315Z,14.87
2018-11-04T18:40:36.205Z,19.33
2018-11-04T18:42:11.107Z,17.60
2018-11-04T18:43:46.349Z,19.37
2018-11-04T18:45:21.526Z,17.60
2018-11-04T18:46:56.441Z,18.90
2018-11-04T18:48:31.445Z,17.43
2018-11-04T18:50:07.227Z,16.13
2018-11-04T18:51:42.156Z,17.77
2018-11-04T18:53:17.050Z,19.07
2018-11-04T18:54:51.992Z,20.60
2018-11-04T18:56:26.944Z,19.60
2018-11-04T18:58:01.893Z,21.13
2018-11-04T18:59:36.925Z,23.13
2018-11-04T19:01:11.927Z,21.97
2018-11-04T19:02:47.553Z,20.33
2018-11-04T19:04:22.519Z,25.07
2018-11-04T19:05:59.308Z,18.00
2018-11-04T19:07:34.264Z,18.87
2018-11-04T19:09:09.914Z,20.10
2018-11-04T19:10:44.846Z,20.77
2018-11-04T19:12:19.739Z,19.33
2018-11-04T19:13:54.666Z,19.77
2018-11-04T19:15:29.626Z,20.80
2018-11-04T19:17:04.775Z,21.80
2018-11-04T19:18:39.773Z,19.50
2018-11-04T19:20:15.539Z,20.63
2018-11-04T19:21:50.506Z,22.00
2018-11-04T19:23:26.107Z,17.57
2018-11-04T19:25:01.059Z,22.57
2018-11-04T19:26:36.114Z,21.87
2018-11-04T19:28:11.041Z,19.93
2018-11-04T19:29:45.951Z,19.40
2018-11-04T19:31:21.044Z,19.07
2018-11-04T19:32:56.013Z,24.80
2018-11-04T19:34:31.107Z,24.73
2018-11-04T19:36:06.033Z,22.33
2018-11-04T19:37:41.340Z,23.53
2018-11-04T19:39:16.359Z,20.03
2018-11-04T19:40:51.301Z,22.00
2018-11-04T19:42:26.298Z,21.23
2018-11-04T19:44:01.187Z,23.57
2018-11-04T19:45:36.464Z,23.73
2018-11-04T19:47:11.323Z,20.43
2018-11-04T19:48:46.382Z,22.77
2018-11-04T19:50:21.256Z,23.87
2018-11-04T19:51:56.155Z,23.47
2018-11-04T19:53:31.253Z,20.80
2018-11-04T19:55:07.262Z,20.53
2018-11-04T19:56:42.301Z,20.07
2018-11-04T19:58:17.216Z,20.37
2018-11-04T19:59:52.182Z,20.63
2018-11-04T20:01:27.169Z,25.23
2018-11-04T20:03:02.150Z,20.83
2018-11-04T20:04:37.177Z,24.30
2018-11-04T20:06:13.285Z,19.17
2018-11-04T20:07:49.286Z,21.53
2018-11-04T20:09:24.225Z,19.03
2018-11-04T20:10:59.216Z,21.07
2018-11-04T20:12:39.422Z,20.73
2018-11-04T20:14:22.809Z,19.53
2018-11-04T20:15:59.073Z,20.53
2018-11-04T20:17:34.230Z,22.37
2018-11-04T20:19:15.530Z,21.97
2018-11-04T20:20:50.615Z,19.43
2018-11-04T20:22:25.557Z,23.30
2018-11-04T20:24:05.749Z,19.60
2018-11-04T20:25:46.494Z,21.10
2018-11-04T20:27:21.351Z,22.73